North Petherton, United Kingdom
Current Conditions -  °F | °C
As of 7:50 AM on Wednesday 22 Oct 2014 (Local Time) from EGDY Reporting Station
Broken Clouds Broken Clouds  
Wind Chill: 46°   Ceiling: 4000
Heat Index: 46°   Visibility: 6mi
Dew Point: 37°   Wind: 2mph
Humidity: 71%   Direction: 220°SW
Pressure: 30.33"   Gusts: NA
Location:  51.09°N, 3.02°W
Report Text: EGDY 220650Z AUTO 22002KT 9999 BKN040/// 08/03 Q1027
Loading
Personal Weather Stations






























Interactive Weather Map
Tropical Storm Tracking
New forecast layout! Learn more

10-Day Weather Forecast

Advertisements
Track Severe Weather on mobile